createdAt,value
2018-07-16T00:01:36.920Z,20.78
2018-07-16T00:02:36.901Z,20.81
2018-07-16T00:04:32.881Z,20.85
2018-07-16T00:05:32.856Z,20.79
2018-07-16T00:07:29.308Z,20.81
2018-07-16T00:08:28.803Z,20.63
2018-07-16T00:10:25.785Z,20.63
2018-07-16T00:11:24.786Z,20.60
2018-07-16T00:13:21.236Z,20.57
2018-07-16T00:14:20.712Z,20.60
2018-07-16T00:16:16.683Z,20.51
2018-07-16T00:17:17.178Z,20.57
2018-07-16T00:19:14.099Z,20.57
2018-07-16T00:20:12.601Z,20.56
2018-07-16T00:22:08.570Z,20.42
2018-07-16T00:23:09.067Z,20.44
2018-07-16T00:25:04.487Z,20.37
2018-07-16T00:26:04.491Z,20.30
2018-07-16T00:28:00.470Z,20.32
2018-07-16T00:29:00.478Z,20.32
2018-07-16T00:30:56.949Z,20.27
2018-07-16T00:31:56.434Z,20.25
2018-07-16T00:33:53.391Z,20.35
2018-07-16T00:34:53.370Z,20.20
2018-07-16T00:36:49.838Z,20.22
2018-07-16T00:37:49.844Z,20.16
2018-07-16T00:39:45.251Z,20.08
2018-07-16T00:40:45.784Z,20.18
2018-07-16T00:42:42.742Z,20.07
2018-07-16T00:43:42.224Z,19.97
2018-07-16T00:45:38.195Z,19.97
2018-07-16T00:46:38.185Z,20.00
2018-07-16T00:48:34.632Z,19.93
2018-07-16T00:49:34.128Z,19.86
2018-07-16T00:51:30.077Z,19.83
2018-07-16T00:52:30.092Z,19.83
2018-07-16T00:54:26.057Z,19.75
2018-07-16T00:55:26.032Z,19.78
2018-07-16T00:57:22.018Z,19.71
2018-07-16T00:58:21.995Z,19.72
2018-07-16T01:00:19.943Z,19.83
2018-07-16T01:01:19.929Z,19.78
2018-07-16T01:03:15.926Z,19.87
2018-07-16T01:04:15.913Z,19.82
2018-07-16T01:06:12.363Z,19.74
2018-07-16T01:07:11.832Z,19.74
2018-07-16T01:09:09.804Z,19.67
2018-07-16T01:10:09.796Z,19.70
2018-07-16T01:12:07.261Z,19.75
2018-07-16T01:13:06.265Z,19.68
2018-07-16T01:15:02.240Z,19.63
2018-07-16T01:16:02.717Z,19.67
2018-07-16T01:17:58.185Z,19.70
2018-07-16T01:18:57.691Z,19.65
2018-07-16T01:20:54.147Z,19.67
2018-07-16T01:21:53.647Z,19.67
2018-07-16T01:23:52.093Z,19.74
2018-07-16T01:24:51.590Z,19.63
2018-07-16T01:26:47.552Z,19.65
2018-07-16T01:27:47.509Z,19.67
2018-07-16T01:29:43.504Z,19.57
2018-07-16T01:30:43.462Z,19.52
2018-07-16T01:32:39.421Z,19.56
2018-07-16T01:33:39.428Z,19.43
2018-07-16T01:35:35.878Z,19.47
2018-07-16T01:36:35.395Z,19.42
2018-07-16T01:38:31.333Z,19.43
2018-07-16T01:39:31.338Z,19.42
2018-07-16T01:41:27.324Z,19.38
2018-07-16T01:43:43.247Z,19.32
2018-07-16T01:44:43.256Z,19.32
2018-07-16T01:46:39.194Z,19.23
2018-07-16T01:47:39.225Z,19.24
2018-07-16T01:49:35.141Z,19.30
2018-07-16T01:50:35.161Z,19.19
2018-07-16T01:52:33.290Z,19.16
2018-07-16T01:53:35.115Z,19.17
2018-07-16T01:55:31.430Z,19.24
2018-07-16T01:56:31.416Z,19.15
2018-07-16T01:58:27.375Z,19.15
2018-07-16T02:00:43.335Z,19.09
2018-07-16T02:01:43.316Z,19.17
2018-07-16T02:03:39.785Z,19.16
2018-07-16T02:04:39.795Z,19.16
2018-07-16T02:06:35.251Z,19.13
2018-07-16T02:07:35.206Z,19.10
2018-07-16T02:09:31.167Z,18.99
2018-07-16T02:10:31.166Z,18.94
2018-07-16T02:12:30.127Z,18.86
2018-07-16T02:13:29.146Z,18.86
2018-07-16T02:15:25.109Z,18.89
2018-07-16T02:16:25.104Z,18.89
2018-07-16T02:18:21.034Z,18.84
2018-07-16T02:19:21.056Z,18.72
2018-07-16T02:21:17.486Z,18.69
2018-07-16T02:22:17.027Z,18.61
2018-07-16T02:24:13.960Z,18.60
2018-07-16T02:26:28.907Z,18.49
2018-07-16T02:27:28.916Z,18.57
2018-07-16T02:29:24.863Z,18.53
2018-07-16T02:30:24.896Z,18.51
2018-07-16T02:32:20.796Z,18.51
2018-07-16T02:33:20.818Z,18.45
2018-07-16T02:35:17.276Z,18.45
2018-07-16T02:36:16.760Z,18.50
2018-07-16T02:38:12.738Z,18.51
2018-07-16T02:39:12.780Z,18.53
2018-07-16T02:41:09.192Z,18.47
2018-07-16T02:42:09.170Z,18.47
2018-07-16T02:44:04.617Z,18.42
2018-07-16T02:45:04.641Z,18.41
2018-07-16T02:47:03.111Z,18.32
2018-07-16T02:48:02.726Z,18.32
2018-07-16T02:49:58.699Z,18.27
2018-07-16T02:50:58.668Z,18.29
2018-07-16T02:52:57.119Z,18.36
2018-07-16T02:53:56.667Z,18.35
2018-07-16T02:55:55.097Z,18.29
2018-07-16T02:56:54.752Z,18.35
2018-07-16T02:58:52.696Z,18.32
2018-07-16T02:59:53.212Z,18.32
2018-07-16T03:01:48.671Z,18.26
2018-07-16T03:02:48.647Z,18.17
2018-07-16T03:04:46.105Z,18.14
2018-07-16T03:05:44.586Z,18.20
2018-07-16T03:07:41.037Z,18.13
2018-07-16T03:08:40.563Z,18.16
2018-07-16T03:10:36.987Z,18.16
2018-07-16T03:11:36.498Z,18.19
2018-07-16T03:13:32.465Z,18.11
2018-07-16T03:14:32.526Z,18.20
2018-07-16T03:16:28.904Z,18.17
2018-07-16T03:17:28.904Z,18.14
2018-07-16T03:19:24.836Z,18.14
2018-07-16T03:20:24.287Z,18.14
2018-07-16T03:22:20.267Z,18.19
2018-07-16T03:23:20.270Z,18.13
2018-07-16T03:25:17.731Z,18.16
2018-07-16T03:26:16.226Z,18.20
2018-07-16T03:28:13.188Z,18.16
2018-07-16T03:29:12.655Z,18.16
2018-07-16T03:31:08.162Z,18.20
2018-07-16T03:32:09.119Z,18.14
2018-07-16T03:34:04.103Z,18.19
2018-07-16T03:35:04.087Z,18.11
2018-07-16T03:37:00.075Z,18.16
2018-07-16T03:38:00.016Z,18.14
2018-07-16T03:39:58.509Z,18.16
2018-07-16T03:40:58.123Z,18.13
2018-07-16T03:42:54.663Z,18.10
2018-07-16T03:43:54.202Z,18.16
2018-07-16T03:45:50.008Z,18.20
2018-07-16T03:46:50.535Z,18.17
2018-07-16T03:48:47.054Z,18.32
2018-07-16T03:49:46.505Z,18.19
2018-07-16T03:51:43.905Z,18.17
2018-07-16T03:52:43.932Z,18.20
2018-07-16T03:54:42.811Z,18.16
2018-07-16T03:55:42.853Z,18.16
2018-07-16T03:57:37.952Z,18.16
2018-07-16T03:58:37.835Z,18.27
2018-07-16T04:00:35.826Z,18.26
2018-07-16T04:01:35.839Z,18.26
2018-07-16T04:03:31.731Z,18.23
2018-07-16T04:04:31.726Z,18.31
2018-07-16T04:06:27.658Z,18.32
2018-07-16T04:07:28.257Z,18.19
2018-07-16T04:09:25.648Z,18.27
2018-07-16T04:10:25.658Z,18.21
2018-07-16T04:12:21.576Z,18.31
2018-07-16T04:13:21.558Z,18.21
2018-07-16T04:15:19.520Z,18.13
2018-07-16T04:16:17.596Z,18.11
2018-07-16T04:18:15.511Z,18.14
2018-07-16T04:19:15.489Z,18.14
2018-07-16T04:21:13.426Z,18.14
2018-07-16T04:22:13.946Z,18.11
2018-07-16T04:24:09.394Z,18.19
2018-07-16T04:25:09.911Z,18.20
2018-07-16T04:27:05.851Z,18.26
2018-07-16T04:28:05.322Z,18.17
2018-07-16T04:30:01.786Z,18.32
2018-07-16T04:31:01.321Z,18.32
2018-07-16T04:33:02.254Z,18.34
2018-07-16T04:34:02.232Z,18.34
2018-07-16T04:36:00.207Z,18.34
2018-07-16T04:36:59.675Z,18.42
2018-07-16T04:38:56.132Z,18.35
2018-07-16T04:39:56.179Z,18.31
2018-07-16T04:41:51.582Z,18.39
2018-07-16T04:42:51.560Z,18.36
2018-07-16T04:44:50.450Z,18.42
2018-07-16T04:45:49.517Z,18.42
2018-07-16T04:47:45.992Z,18.47
2018-07-16T04:48:45.453Z,18.63
2018-07-16T04:50:44.470Z,18.81
2018-07-16T04:51:45.437Z,19.12
2018-07-16T04:53:41.928Z,19.75
2018-07-16T04:54:40.423Z,19.95
2018-07-16T04:56:36.321Z,20.23
2018-07-16T04:57:36.322Z,20.42
2018-07-16T04:59:32.270Z,20.64
2018-07-16T05:00:32.314Z,20.74
2018-07-16T05:02:29.164Z,20.83
2018-07-16T05:03:28.236Z,21.04
2018-07-16T05:05:27.677Z,21.25
2018-07-16T05:06:26.335Z,21.27
2018-07-16T05:08:25.307Z,21.64
2018-07-16T05:09:24.480Z,21.56
2018-07-16T05:11:20.451Z,21.70
2018-07-16T05:12:20.419Z,21.92
2018-07-16T05:14:16.401Z,21.96
2018-07-16T05:15:16.366Z,21.93
2018-07-16T05:17:14.516Z,22.09
2018-07-16T05:18:14.628Z,22.30
2018-07-16T05:20:15.513Z,22.51
2018-07-16T05:21:14.976Z,22.63
2018-07-16T05:23:10.964Z,22.67
2018-07-16T05:24:10.978Z,22.78
2018-07-16T05:26:09.426Z,23.04
2018-07-16T05:28:30.418Z,23.24
2018-07-16T05:30:44.158Z,23.44
2018-07-16T05:31:41.454Z,23.45
2018-07-16T05:33:37.622Z,23.60
